createdAt,value
2018-06-12T00:00:37.911Z,18.29
2018-06-12T00:01:37.878Z,18.25
2018-06-12T00:02:37.886Z,18.25
2018-06-12T00:03:37.936Z,18.22
2018-06-12T00:04:38.046Z,18.33
2018-06-12T00:05:37.850Z,18.44
2018-06-12T00:06:37.863Z,18.37
2018-06-12T00:07:37.861Z,18.32
2018-06-12T00:08:37.898Z,18.35
2018-06-12T00:09:37.894Z,18.36
2018-06-12T00:10:37.865Z,18.31
2018-06-12T00:11:37.863Z,18.43
2018-06-12T00:12:37.922Z,18.17
2018-06-12T00:13:37.867Z,18.2
2018-06-12T00:14:37.909Z,18.2
2018-06-12T00:15:37.873Z,18.26
2018-06-12T00:16:37.903Z,18.28
2018-06-12T00:17:37.920Z,18.26
2018-06-12T00:18:37.855Z,18.26
2018-06-12T00:19:37.855Z,18.33
2018-06-12T00:20:37.913Z,18.27
2018-06-12T00:21:37.864Z,18.26
2018-06-12T00:22:38.097Z,18.3
2018-06-12T00:23:37.918Z,18.24
2018-06-12T00:24:37.898Z,18.19
2018-06-12T00:25:37.883Z,18.23
2018-06-12T00:26:37.939Z,18.24
2018-06-12T00:27:38.120Z,18.2
2018-06-12T00:28:37.863Z,18.21
2018-06-12T00:29:37.865Z,18.18
2018-06-12T00:30:37.897Z,18.21
2018-06-12T00:31:37.878Z,18.18
2018-06-12T00:32:37.905Z,18.17
2018-06-12T00:33:37.866Z,18.15
2018-06-12T00:34:37.846Z,18.18
2018-06-12T00:35:37.865Z,18.23
2018-06-12T00:36:37.855Z,18.23
2018-06-12T00:37:37.883Z,18.26
2018-06-12T00:38:37.929Z,18.22
2018-06-12T00:39:38.054Z,18.14
2018-06-12T00:40:38.018Z,18.14
2018-06-12T00:41:37.872Z,18.18
2018-06-12T00:42:37.917Z,18.04
2018-06-12T00:43:37.903Z,18.11
2018-06-12T00:44:37.870Z,18.11
2018-06-12T00:45:38.006Z,18.15
2018-06-12T00:46:37.846Z,18.18
2018-06-12T00:47:37.844Z,18.2
2018-06-12T00:48:37.866Z,18.04
2018-06-12T00:49:37.921Z,18.05
2018-06-12T00:50:37.961Z,18.14
2018-06-12T00:51:37.859Z,18.12
2018-06-12T00:52:37.991Z,18.16
2018-06-12T00:53:37.931Z,18.18
2018-06-12T00:54:37.858Z,18.13
2018-06-12T00:55:37.967Z,18.14
2018-06-12T00:56:37.856Z,18.17
2018-06-12T00:57:37.983Z,18.15
2018-06-12T00:58:37.851Z,18.24
2018-06-12T00:59:38.218Z,18.07
2018-06-12T01:00:37.966Z,18.05
2018-06-12T01:01:37.915Z,18.05
2018-06-12T01:02:37.896Z,18.02
2018-06-12T01:03:37.837Z,18.04
2018-06-12T01:04:37.878Z,18
2018-06-12T01:05:37.844Z,18.03
2018-06-12T01:06:37.847Z,18.02
2018-06-12T01:07:37.998Z,18.08
2018-06-12T01:08:38.032Z,18.11
2018-06-12T01:09:38.067Z,18.1
2018-06-12T01:10:37.862Z,18.04
2018-06-12T01:11:37.869Z,18.12
2018-06-12T01:12:37.904Z,17.89
2018-06-12T01:13:37.838Z,17.9
2018-06-12T01:14:37.841Z,17.88
2018-06-12T01:15:37.871Z,17.96
2018-06-12T01:16:37.834Z,17.99
2018-06-12T01:17:37.842Z,17.86
2018-06-12T01:18:37.833Z,17.76
2018-06-12T01:19:37.882Z,17.59
2018-06-12T01:20:37.860Z,17.58
2018-06-12T01:21:37.843Z,17.6
2018-06-12T01:22:37.842Z,17.61
2018-06-12T01:23:37.861Z,17.56
2018-06-12T01:24:37.883Z,17.59
2018-06-12T01:25:37.888Z,17.48
2018-06-12T01:26:37.880Z,17.56
2018-06-12T01:27:37.862Z,17.47
2018-06-12T01:28:37.840Z,17.53
2018-06-12T01:29:37.897Z,17.39
2018-06-12T01:30:37.921Z,17.33
2018-06-12T01:31:37.849Z,17.26
2018-06-12T01:32:37.827Z,17.35
2018-06-12T01:33:37.869Z,17.33
2018-06-12T01:34:37.828Z,17.3
2018-06-12T01:35:37.852Z,17.45
2018-06-12T01:36:37.876Z,17.37
2018-06-12T01:37:37.950Z,17.37
2018-06-12T01:38:37.859Z,17.33
2018-06-12T01:39:37.976Z,17.28
2018-06-12T01:40:37.948Z,17.25
2018-06-12T01:41:38.452Z,17.31
2018-06-12T01:42:37.821Z,17.38
2018-06-12T01:43:38.202Z,17.24
2018-06-12T01:44:37.859Z,17.18
2018-06-12T01:45:38.127Z,17.23
2018-06-12T01:46:37.894Z,17.25
2018-06-12T01:47:37.837Z,17.23
2018-06-12T01:48:37.968Z,17.13
2018-06-12T01:49:37.823Z,17.17
2018-06-12T01:50:37.826Z,17.2
2018-06-12T01:51:37.860Z,17.28
2018-06-12T01:52:37.912Z,17.25
2018-06-12T01:53:37.862Z,17.15
2018-06-12T01:54:37.829Z,17.1
2018-06-12T01:55:37.889Z,17.17
2018-06-12T01:56:37.881Z,17.1
2018-06-12T01:57:37.871Z,17.15
2018-06-12T01:58:37.836Z,17.09
2018-06-12T01:59:37.878Z,17.12
2018-06-12T02:00:37.851Z,17.09
2018-06-12T02:01:37.999Z,17.2
2018-06-12T02:02:38.000Z,17.05
2018-06-12T02:03:38.249Z,17.2
2018-06-12T02:04:37.818Z,17.16
2018-06-12T02:05:37.818Z,17.22
2018-06-12T02:06:37.844Z,17.2
2018-06-12T02:07:37.844Z,17.27
2018-06-12T02:08:37.856Z,17.27
2018-06-12T02:09:37.835Z,17.15
2018-06-12T02:10:37.822Z,17.2
2018-06-12T02:11:37.839Z,17.22
2018-06-12T02:12:37.860Z,17.3
2018-06-12T02:13:37.881Z,17.19
2018-06-12T02:14:37.863Z,17.15
2018-06-12T02:15:37.827Z,17.06
2018-06-12T02:16:37.845Z,17.13
2018-06-12T02:17:37.841Z,17.14
2018-06-12T02:18:37.822Z,17.09
2018-06-12T02:19:37.838Z,16.99
2018-06-12T02:20:37.826Z,17
2018-06-12T02:21:38.097Z,17.02
2018-06-12T02:22:37.882Z,16.92
2018-06-12T02:23:37.831Z,17.01
2018-06-12T02:24:37.829Z,16.91
2018-06-12T02:25:38.097Z,16.89
2018-06-12T02:26:37.816Z,16.91
2018-06-12T02:27:37.811Z,16.91
2018-06-12T02:28:37.824Z,16.91
2018-06-12T02:29:37.814Z,16.94
2018-06-12T02:30:37.831Z,16.95
2018-06-12T02:31:37.853Z,16.9
2018-06-12T02:32:37.825Z,16.91
2018-06-12T02:33:37.848Z,16.87
2018-06-12T02:34:37.849Z,16.98
2018-06-12T02:35:37.865Z,16.86
2018-06-12T02:36:37.816Z,16.91
2018-06-12T02:37:37.874Z,16.99
2018-06-12T02:38:37.825Z,16.99
2018-06-12T02:39:37.839Z,17.01
2018-06-12T02:40:37.839Z,16.9
2018-06-12T02:41:37.817Z,16.93
2018-06-12T02:42:37.827Z,16.96
2018-06-12T02:43:37.839Z,17
2018-06-12T02:44:38.401Z,16.95
2018-06-12T02:45:37.862Z,16.85
2018-06-12T02:46:37.831Z,16.96
2018-06-12T02:47:37.834Z,16.88
2018-06-12T02:48:37.822Z,16.89
2018-06-12T02:49:37.850Z,16.96
2018-06-12T02:50:37.836Z,16.94
2018-06-12T02:51:37.999Z,17.01
2018-06-12T02:52:37.840Z,17.04
2018-06-12T02:53:38.013Z,17.04
2018-06-12T02:54:37.808Z,17.01
2018-06-12T02:55:37.820Z,17
2018-06-12T02:56:37.852Z,17.01
2018-06-12T02:57:37.815Z,17.01
2018-06-12T02:58:38.123Z,17.03
2018-06-12T02:59:37.817Z,16.9
2018-06-12T03:00:38.031Z,16.92
2018-06-12T03:01:37.865Z,16.86
2018-06-12T03:02:37.861Z,16.91
2018-06-12T03:03:37.959Z,16.94
2018-06-12T03:04:37.822Z,16.93
2018-06-12T03:05:37.828Z,16.95
2018-06-12T03:06:37.817Z,16.96
2018-06-12T03:07:37.851Z,17.03
2018-06-12T03:08:37.830Z,17.09
2018-06-12T03:09:37.865Z,16.94
2018-06-12T03:10:37.807Z,16.95
2018-06-12T03:11:37.819Z,16.9
2018-06-12T03:12:37.814Z,16.83
2018-06-12T03:13:37.831Z,16.82
2018-06-12T03:14:37.817Z,16.84
2018-06-12T03:15:37.817Z,16.85
2018-06-12T03:16:37.911Z,16.89
2018-06-12T03:17:37.862Z,16.87
2018-06-12T03:18:37.805Z,16.86
2018-06-12T03:19:37.805Z,16.89
2018-06-12T03:20:37.838Z,16.92
2018-06-12T03:21:37.796Z,16.95
2018-06-12T03:22:37.788Z,16.97
2018-06-12T03:23:37.800Z,17.02
2018-06-12T03:24:37.846Z,16.91
2018-06-12T03:25:37.821Z,16.96
2018-06-12T03:26:37.984Z,16.96
2018-06-12T03:27:37.799Z,16.88
2018-06-12T03:28:37.897Z,16.88
2018-06-12T03:29:37.849Z,16.89
2018-06-12T03:30:37.830Z,16.96
2018-06-12T03:31:37.899Z,16.89
2018-06-12T03:32:38.023Z,16.95
2018-06-12T03:33:38.003Z,16.96
2018-06-12T03:34:37.825Z,16.98
2018-06-12T03:35:37.801Z,17.01
2018-06-12T03:36:37.820Z,16.99
2018-06-12T03:37:37.800Z,16.97
2018-06-12T03:38:37.800Z,17.03
2018-06-12T03:39:37.975Z,16.97
2018-06-12T03:40:37.777Z,16.93
2018-06-12T03:41:37.783Z,17.03
2018-06-12T03:42:37.790Z,17.01
2018-06-12T03:43:37.802Z,17.03
2018-06-12T03:44:37.843Z,17.07
2018-06-12T03:45:37.814Z,17.04
2018-06-12T03:46:37.803Z,17
2018-06-12T03:47:37.797Z,16.98
2018-06-12T03:48:37.793Z,17.04
2018-06-12T03:49:37.801Z,16.98
2018-06-12T03:50:37.864Z,16.99
2018-06-12T03:51:37.794Z,16.93
2018-06-12T03:52:37.799Z,16.99
2018-06-12T03:53:37.786Z,16.96
2018-06-12T03:54:37.795Z,16.98
2018-06-12T03:55:37.794Z,16.89
2018-06-12T03:56:37.779Z,16.82
2018-06-12T03:57:38.220Z,16.83
2018-06-12T03:58:37.824Z,16.87
2018-06-12T03:59:38.013Z,16.95
2018-06-12T04:00:37.886Z,16.84
2018-06-12T04:01:37.811Z,16.78
2018-06-12T04:02:37.801Z,16.81
2018-06-12T04:03:37.835Z,16.86
2018-06-12T04:04:37.772Z,16.96
2018-06-12T04:05:37.802Z,16.82
2018-06-12T04:06:37.782Z,16.94
2018-06-12T04:07:38.057Z,16.84
2018-06-12T04:08:37.758Z,16.89
2018-06-12T04:09:37.816Z,16.84
2018-06-12T04:10:37.827Z,16.79
2018-06-12T04:11:37.988Z,16.78
2018-06-12T04:12:37.849Z,16.87
2018-06-12T04:13:37.808Z,16.85
2018-06-12T04:14:37.790Z,16.95
2018-06-12T04:15:37.816Z,16.82
2018-06-12T04:16:37.808Z,16.84
2018-06-12T04:17:37.842Z,16.8
2018-06-12T04:18:38.034Z,16.79
2018-06-12T04:19:37.814Z,16.79
2018-06-12T04:20:37.923Z,16.83
2018-06-12T04:21:37.775Z,16.87
2018-06-12T04:22:37.771Z,16.78
2018-06-12T04:23:37.835Z,16.72
2018-06-12T04:24:37.842Z,16.82
2018-06-12T04:25:37.780Z,16.8
2018-06-12T04:26:37.788Z,16.83
2018-06-12T04:27:37.821Z,16.86
2018-06-12T04:28:37.791Z,16.82
2018-06-12T04:29:38.012Z,16.88
2018-06-12T04:30:38.463Z,16.88
2018-06-12T04:31:38.135Z,16.88
2018-06-12T04:32:37.802Z,16.89
2018-06-12T04:33:37.799Z,16.92
2018-06-12T04:34:37.836Z,16.91
2018-06-12T04:35:37.774Z,16.84
2018-06-12T04:36:37.847Z,16.88
2018-06-12T04:37:37.787Z,16.88
2018-06-12T04:38:37.781Z,16.9
2018-06-12T04:39:37.813Z,16.9
2018-06-12T04:40:37.785Z,16.83
2018-06-12T04:41:37.778Z,16.84
2018-06-12T04:42:37.775Z,16.81
2018-06-12T04:43:38.100Z,16.7
2018-06-12T04:44:37.808Z,16.75
2018-06-12T04:45:37.830Z,16.8
2018-06-12T04:46:37.837Z,16.81
2018-06-12T04:47:37.763Z,16.81
2018-06-12T04:48:37.826Z,16.81
2018-06-12T04:49:37.800Z,16.87
2018-06-12T04:50:37.825Z,16.84
2018-06-12T04:51:37.809Z,16.79
2018-06-12T04:52:37.784Z,16.79
2018-06-12T04:53:37.775Z,16.86
2018-06-12T04:54:37.922Z,16.88
2018-06-12T04:55:37.774Z,16.89
2018-06-12T04:56:37.810Z,16.79
2018-06-12T04:57:37.779Z,16.72
2018-06-12T04:58:37.781Z,16.76
2018-06-12T04:59:37.775Z,16.74
2018-06-12T05:00:37.806Z,16.76
2018-06-12T05:01:37.776Z,16.82
2018-06-12T05:02:37.773Z,16.76
2018-06-12T05:03:37.756Z,16.83
2018-06-12T05:04:37.762Z,16.88
2018-06-12T05:05:37.835Z,16.84
2018-06-12T05:06:37.774Z,16.84
2018-06-12T05:07:37.816Z,16.81
2018-06-12T05:08:37.925Z,16.81
2018-06-12T05:09:37.753Z,16.86
2018-06-12T05:10:38.044Z,16.68
2018-06-12T05:11:37.759Z,16.77
2018-06-12T05:12:37.750Z,16.76
2018-06-12T05:13:37.795Z,16.71
2018-06-12T05:14:38.182Z,16.75
2018-06-12T05:15:37.820Z,16.82
2018-06-12T05:16:37.774Z,16.84
2018-06-12T05:17:37.764Z,16.85
2018-06-12T05:18:38.100Z,16.82
2018-06-12T05:19:38.515Z,16.8
2018-06-12T05:20:37.970Z,16.84
2018-06-12T05:21:38.064Z,16.8
2018-06-12T05:22:37.852Z,16.8
2018-06-12T05:23:37.761Z,16.72
2018-06-12T05:24:37.778Z,16.76
2018-06-12T05:25:38.245Z,16.76
2018-06-12T05:26:37.751Z,16.74
2018-06-12T05:27:37.749Z,16.74
2018-06-12T05:28:37.991Z,16.67
2018-06-12T05:29:37.753Z,16.6
2018-06-12T05:30:37.829Z,16.64
2018-06-12T05:31:37.887Z,16.63
2018-06-12T05:32:37.939Z,16.62
2018-06-12T05:33:37.875Z,16.62
2018-06-12T05:34:37.753Z,16.59
2018-06-12T05:35:38.019Z,16.67
2018-06-12T05:36:37.795Z,16.75
2018-06-12T05:37:37.749Z,16.8
2018-06-12T05:38:37.771Z,16.76
2018-06-12T05:39:37.782Z,16.7
2018-06-12T05:40:37.787Z,16.57
2018-06-12T05:41:37.792Z,16.52
2018-06-12T05:42:37.813Z,16.59
2018-06-12T05:43:37.779Z,16.61
2018-06-12T05:44:37.798Z,16.59
2018-06-12T05:45:38.121Z,16.67
2018-06-12T05:46:37.755Z,16.67
2018-06-12T05:47:37.795Z,16.71
2018-06-12T05:48:37.965Z,16.66
2018-06-12T05:49:37.772Z,16.64
2018-06-12T05:50:37.763Z,16.69
2018-06-12T05:51:37.794Z,16.75
2018-06-12T05:52:37.816Z,16.79
2018-06-12T05:53:37.833Z,16.76
2018-06-12T05:54:37.764Z,16.74
2018-06-12T05:55:37.900Z,16.77
2018-06-12T05:56:37.756Z,16.73
2018-06-12T05:57:37.759Z,16.65
2018-06-12T05:58:37.746Z,16.75
2018-06-12T05:59:37.763Z,16.58
2018-06-12T06:00:37.760Z,16.53
2018-06-12T06:01:37.806Z,16.51
2018-06-12T06:02:37.783Z,16.6
2018-06-12T06:03:37.736Z,16.66
2018-06-12T06:04:37.756Z,16.66
2018-06-12T06:05:37.743Z,16.65
2018-06-12T06:06:37.770Z,16.72
2018-06-12T06:07:37.760Z,16.67
2018-06-12T06:08:37.781Z,16.77
2018-06-12T06:09:37.742Z,16.67
2018-06-12T06:10:37.952Z,16.71
2018-06-12T06:11:37.752Z,16.73
2018-06-12T06:12:37.787Z,16.57
2018-06-12T06:13:37.783Z,16.69
2018-06-12T06:14:37.749Z,16.75
2018-06-12T06:15:37.751Z,16.71
2018-06-12T06:16:37.757Z,16.68
2018-06-12T06:17:37.773Z,16.72
2018-06-12T06:18:37.763Z,16.68
2018-06-12T06:19:37.749Z,16.77
2018-06-12T06:20:37.866Z,16.78
2018-06-12T06:21:37.815Z,16.71
2018-06-12T06:22:38.052Z,16.74
2018-06-12T06:23:37.778Z,16.67
2018-06-12T06:24:37.748Z,16.61
2018-06-12T06:25:38.034Z,16.61
2018-06-12T06:26:37.800Z,16.52
2018-06-12T06:27:37.777Z,16.61
2018-06-12T06:28:37.757Z,16.64
2018-06-12T06:29:38.008Z,16.69
2018-06-12T06:30:37.771Z,16.7
2018-06-12T06:31:37.745Z,16.59
2018-06-12T06:32:37.775Z,16.55
2018-06-12T06:33:37.921Z,16.65
2018-06-12T06:34:37.939Z,16.62
2018-06-12T06:35:37.792Z,16.73
2018-06-12T06:36:37.826Z,16.69
2018-06-12T06:37:37.819Z,16.7
2018-06-12T06:38:37.862Z,16.53
2018-06-12T06:39:37.766Z,16.59
2018-06-12T06:40:37.811Z,16.63
2018-06-12T06:41:37.877Z,16.66
2018-06-12T06:42:37.810Z,16.68
2018-06-12T06:43:37.819Z,16.69
2018-06-12T06:44:37.792Z,16.65
2018-06-12T06:45:37.791Z,16.68
2018-06-12T06:46:37.815Z,16.7
2018-06-12T06:47:37.796Z,16.69
2018-06-12T06:48:37.792Z,16.64
2018-06-12T06:49:37.811Z,16.65
2018-06-12T06:50:37.791Z,16.59
2018-06-12T06:51:37.952Z,16.5
2018-06-12T06:52:37.821Z,16.54
2018-06-12T06:53:38.076Z,16.51
2018-06-12T06:54:37.771Z,16.58
2018-06-12T06:55:38.184Z,16.62
2018-06-12T06:56:37.789Z,16.67
2018-06-12T06:57:37.856Z,16.72
2018-06-12T06:58:37.804Z,16.67
2018-06-12T06:59:37.816Z,16.57
2018-06-12T07:00:37.832Z,16.41
2018-06-12T07:01:37.817Z,16.48
2018-06-12T07:02:37.816Z,16.57
2018-06-12T07:03:37.810Z,16.66
2018-06-12T07:04:37.788Z,16.63
2018-06-12T07:05:37.807Z,16.55
2018-06-12T07:06:37.799Z,16.5
2018-06-12T07:07:38.087Z,16.55
2018-06-12T07:08:37.792Z,16.62
2018-06-12T07:09:37.858Z,16.68
2018-06-12T07:10:37.778Z,16.56
2018-06-12T07:11:37.823Z,16.6
2018-06-12T07:12:37.792Z,16.64
2018-06-12T07:13:37.790Z,16.6
2018-06-12T07:14:37.791Z,16.59
2018-06-12T07:15:37.784Z,16.65
2018-06-12T07:16:37.816Z,16.67
2018-06-12T07:17:37.789Z,16.62
2018-06-12T07:18:37.843Z,16.63
2018-06-12T07:19:37.791Z,16.56
2018-06-12T07:20:37.798Z,16.54
2018-06-12T07:21:37.885Z,16.56
2018-06-12T07:22:37.808Z,16.51
2018-06-12T07:23:37.970Z,16.52
2018-06-12T07:24:37.790Z,16.56
2018-06-12T07:25:37.791Z,16.56
2018-06-12T07:26:37.847Z,16.47
2018-06-12T07:27:37.874Z,16.39
2018-06-12T07:28:37.798Z,16.39
2018-06-12T07:29:37.810Z,16.36
2018-06-12T07:30:37.814Z,16.46
2018-06-12T07:31:37.851Z,16.54
2018-06-12T07:32:37.846Z,16.47
2018-06-12T07:33:37.827Z,16.52
2018-06-12T07:34:38.021Z,16.6
2018-06-12T07:35:37.835Z,16.61
2018-06-12T07:36:37.888Z,16.6
2018-06-12T07:37:38.918Z,16.54
2018-06-12T07:38:37.829Z,16.48
2018-06-12T07:39:37.812Z,16.59
2018-06-12T07:40:37.899Z,16.48
2018-06-12T07:41:38.514Z,16.55
2018-06-12T07:42:37.919Z,16.59
2018-06-12T07:43:37.801Z,16.68
2018-06-12T07:44:37.803Z,16.62
2018-06-12T07:45:37.805Z,16.61
2018-06-12T07:46:37.824Z,16.59
2018-06-12T07:47:37.832Z,16.68
2018-06-12T07:48:37.862Z,16.55
2018-06-12T07:49:37.854Z,16.63
2018-06-12T07:50:37.792Z,16.6
2018-06-12T07:51:37.818Z,16.61
2018-06-12T07:52:37.974Z,16.69
2018-06-12T07:53:37.840Z,16.69
2018-06-12T07:54:37.782Z,16.66
2018-06-12T07:55:37.921Z,16.7
2018-06-12T07:56:37.860Z,16.64
2018-06-12T07:57:37.859Z,16.64
2018-06-12T07:58:37.891Z,16.71
2018-06-12T07:59:37.851Z,16.72
2018-06-12T08:00:37.837Z,16.72
2018-06-12T08:01:37.819Z,16.75
2018-06-12T08:02:37.811Z,16.8
2018-06-12T08:03:37.814Z,16.81
2018-06-12T08:04:37.841Z,16.69
2018-06-12T08:05:37.914Z,16.72
2018-06-12T08:06:37.864Z,16.65
2018-06-12T08:07:37.905Z,16.61
2018-06-12T08:08:37.994Z,16.66
2018-06-12T08:09:37.852Z,16.66
2018-06-12T08:10:37.825Z,16.6
2018-06-12T08:11:37.855Z,16.69
2018-06-12T08:12:37.826Z,16.76
2018-06-12T08:13:37.856Z,16.75
2018-06-12T08:14:37.816Z,16.74
2018-06-12T08:15:37.863Z,16.78
2018-06-12T08:16:37.886Z,16.66
2018-06-12T08:17:37.869Z,16.84
2018-06-12T08:18:38.125Z,16.81
2018-06-12T08:19:37.823Z,16.63
2018-06-12T08:20:37.989Z,16.71
2018-06-12T08:21:37.830Z,16.78
2018-06-12T08:22:37.972Z,16.86
2018-06-12T08:23:37.886Z,16.74
2018-06-12T08:24:37.880Z,16.89
2018-06-12T08:25:37.849Z,16.88
2018-06-12T08:26:37.828Z,16.83
2018-06-12T08:27:37.842Z,16.84
2018-06-12T08:28:37.876Z,16.78
2018-06-12T08:29:38.199Z,16.82
2018-06-12T08:30:38.234Z,16.92
2018-06-12T08:31:37.824Z,17.03
2018-06-12T08:32:37.827Z,17.04
2018-06-12T08:33:37.854Z,16.83
2018-06-12T08:34:37.949Z,16.82
2018-06-12T08:35:38.264Z,16.93
2018-06-12T08:36:37.855Z,16.95
2018-06-12T08:37:37.841Z,17.03
2018-06-12T08:38:37.849Z,16.87
2018-06-12T08:39:37.856Z,16.75
2018-06-12T08:40:37.867Z,16.79
2018-06-12T08:41:37.931Z,16.82
2018-06-12T08:42:37.947Z,16.78
2018-06-12T08:43:37.837Z,16.72
2018-06-12T08:44:38.139Z,16.75
2018-06-12T08:45:37.837Z,16.76
2018-06-12T08:46:37.862Z,16.81
2018-06-12T08:47:37.989Z,16.73
2018-06-12T08:48:37.845Z,16.73
2018-06-12T08:49:37.998Z,16.87
2018-06-12T08:50:38.056Z,16.85
2018-06-12T08:51:37.953Z,17.04
2018-06-12T08:52:37.865Z,16.97
2018-06-12T08:53:37.873Z,16.99
2018-06-12T08:54:37.854Z,16.93
2018-06-12T08:55:37.887Z,17.13
2018-06-12T08:56:38.046Z,16.9
2018-06-12T08:57:38.079Z,16.93
2018-06-12T08:58:37.868Z,16.86
2018-06-12T08:59:37.844Z,16.99
2018-06-12T09:00:37.901Z,17.11
2018-06-12T09:01:37.889Z,17.19
2018-06-12T09:02:38.214Z,17.19
2018-06-12T09:03:37.863Z,17.21
2018-06-12T09:04:38.013Z,17.36
2018-06-12T09:05:38.018Z,17.49
2018-06-12T09:06:37.877Z,16.82
2018-06-12T09:07:38.044Z,17.01
2018-06-12T09:08:37.893Z,17.1
2018-06-12T09:09:38.048Z,17.04
2018-06-12T09:10:37.989Z,17.09
2018-06-12T09:11:37.928Z,17.06
2018-06-12T09:12:37.893Z,17.13
2018-06-12T09:13:37.878Z,17.14
2018-06-12T09:14:37.977Z,16.9
2018-06-12T09:15:38.127Z,16.9
2018-06-12T09:16:37.948Z,17.01
2018-06-12T09:17:38.044Z,16.94
2018-06-12T09:18:38.076Z,16.93
2018-06-12T09:19:38.073Z,16.85
2018-06-12T09:20:37.893Z,16.84
2018-06-12T09:21:37.863Z,16.82
2018-06-12T09:22:37.865Z,16.82
2018-06-12T09:23:37.856Z,16.83
2018-06-12T09:24:37.876Z,16.82
2018-06-12T09:25:37.879Z,16.96
2018-06-12T09:26:38.204Z,16.91
2018-06-12T09:27:37.892Z,16.86
2018-06-12T09:28:37.868Z,16.98
2018-06-12T09:29:37.886Z,17
2018-06-12T09:30:37.863Z,16.85
2018-06-12T09:31:37.898Z,17.01
2018-06-12T09:32:37.866Z,16.81
2018-06-12T09:33:37.867Z,17.13
2018-06-12T09:34:37.901Z,17.15
2018-06-12T09:35:37.859Z,17.05
2018-06-12T09:36:37.865Z,16.97
2018-06-12T09:37:37.889Z,16.96
2018-06-12T09:38:37.877Z,16.92
2018-06-12T09:39:37.865Z,16.98
2018-06-12T09:40:37.889Z,17.04
2018-06-12T09:41:37.957Z,17.07
2018-06-12T09:42:37.880Z,17.18
2018-06-12T09:43:37.886Z,17.1
2018-06-12T09:44:37.875Z,17.1
2018-06-12T09:45:37.881Z,17.23
2018-06-12T09:46:37.855Z,17.2
2018-06-12T09:47:37.879Z,17.05
2018-06-12T09:48:37.874Z,17.17
2018-06-12T09:49:37.917Z,17.18
2018-06-12T09:50:37.995Z,17.17
2018-06-12T09:51:37.937Z,17.34
2018-06-12T09:52:37.917Z,17.29
2018-06-12T09:53:38.178Z,17.26
2018-06-12T09:54:37.966Z,17.1
2018-06-12T09:55:38.016Z,17.19
2018-06-12T09:56:37.963Z,17.22
2018-06-12T09:57:38.320Z,17.3
2018-06-12T09:58:38.097Z,17.4
2018-06-12T09:59:38.031Z,17.18
2018-06-12T10:00:37.901Z,17.11
2018-06-12T10:01:37.891Z,17.33
2018-06-12T10:02:37.894Z,17.13
2018-06-12T10:03:38.210Z,17.14
2018-06-12T10:04:37.951Z,17.23
2018-06-12T10:05:37.947Z,17.23
2018-06-12T10:06:37.912Z,17.07
2018-06-12T10:07:37.891Z,16.88
2018-06-12T10:08:38.161Z,17.11
2018-06-12T10:09:38.321Z,16.97
2018-06-12T10:10:38.038Z,17.01
2018-06-12T10:11:38.205Z,17.15
2018-06-12T10:12:37.899Z,17.15
2018-06-12T10:13:37.971Z,17.04
2018-06-12T10:14:38.080Z,16.88
2018-06-12T10:15:37.948Z,16.94
2018-06-12T10:16:37.890Z,17.14
2018-06-12T10:17:37.884Z,17.29
2018-06-12T10:18:37.893Z,17.24
2018-06-12T10:19:37.959Z,17.36
2018-06-12T10:20:37.897Z,17.2
2018-06-12T10:21:37.875Z,17.11
2018-06-12T10:22:38.043Z,17.11
2018-06-12T10:23:37.977Z,17
2018-06-12T10:24:38.230Z,17.14
2018-06-12T10:25:37.993Z,17.19
2018-06-12T10:26:38.000Z,17.23
2018-06-12T10:27:38.034Z,17.13
2018-06-12T10:28:37.913Z,17.08
2018-06-12T10:29:37.966Z,17.08
2018-06-12T10:30:38.033Z,17.04
2018-06-12T10:31:38.105Z,17.13
2018-06-12T10:32:37.977Z,17.08
2018-06-12T10:33:37.932Z,17.08
2018-06-12T10:34:38.087Z,17.12
2018-06-12T10:35:38.056Z,17.17
2018-06-12T10:36:38.026Z,17.15
2018-06-12T10:37:38.005Z,17.19
2018-06-12T10:38:38.008Z,17.17
2018-06-12T10:39:37.980Z,17.22
2018-06-12T10:40:38.022Z,17.17
2018-06-12T10:41:38.002Z,17.12
2018-06-12T10:42:38.010Z,17.13
2018-06-12T10:43:38.271Z,17.3
2018-06-12T10:44:37.933Z,17.31
2018-06-12T10:45:37.939Z,17.3
2018-06-12T10:46:37.942Z,17.25
2018-06-12T10:47:37.913Z,17.28
2018-06-12T10:48:37.891Z,17.45
2018-06-12T10:49:37.936Z,17.49
2018-06-12T10:50:37.918Z,17.52
2018-06-12T10:51:37.911Z,17.45
2018-06-12T10:52:37.999Z,17.55
2018-06-12T10:53:37.914Z,17.53
2018-06-12T10:54:37.918Z,17.33
2018-06-12T10:55:38.030Z,17.34
2018-06-12T10:56:37.922Z,17.51
2018-06-12T10:57:37.969Z,17.67
2018-06-12T10:58:37.921Z,17.3
2018-06-12T10:59:37.904Z,17.53
2018-06-12T11:00:37.920Z,17.55
2018-06-12T11:01:37.994Z,17.44
2018-06-12T11:02:37.932Z,17.46
2018-06-12T11:03:38.336Z,17.5
2018-06-12T11:04:38.033Z,17.64
2018-06-12T11:05:38.010Z,17.59
2018-06-12T11:06:37.960Z,17.68
2018-06-12T11:07:38.017Z,17.59
2018-06-12T11:08:38.087Z,17.71
2018-06-12T11:09:37.950Z,17.56
2018-06-12T11:10:37.968Z,17.63
2018-06-12T11:11:38.062Z,17.65
2018-06-12T11:12:37.983Z,17.7
2018-06-12T11:13:37.926Z,17.52
2018-06-12T11:14:38.072Z,17.58
2018-06-12T11:15:37.933Z,17.55
2018-06-12T11:16:38.054Z,17.61
2018-06-12T11:17:38.060Z,17.66
2018-06-12T11:18:37.943Z,17.88
2018-06-12T11:19:37.942Z,17.9
2018-06-12T11:20:38.171Z,17.94
2018-06-12T11:21:38.070Z,17.92
2018-06-12T11:22:38.049Z,17.82
2018-06-12T11:23:37.970Z,18.1
2018-06-12T11:24:37.950Z,18.12
2018-06-12T11:25:38.007Z,18.08
2018-06-12T11:26:38.027Z,18.26
2018-06-12T11:27:37.947Z,18.04
2018-06-12T11:28:38.013Z,18.2
2018-06-12T11:29:38.051Z,18.05
2018-06-12T11:30:37.970Z,18.13
2018-06-12T11:31:37.998Z,18.15
2018-06-12T11:32:37.944Z,18.06
2018-06-12T11:33:37.949Z,18.12
2018-06-12T11:34:38.052Z,18.1
2018-06-12T11:35:37.965Z,17.98
2018-06-12T11:36:37.956Z,18.2
2018-06-12T11:37:38.038Z,17.91
2018-06-12T11:38:38.099Z,18
2018-06-12T11:39:38.021Z,18.2
2018-06-12T11:40:38.059Z,18.12
2018-06-12T11:41:38.076Z,17.9
2018-06-12T11:42:38.028Z,18.02
2018-06-12T11:43:37.973Z,18.01
2018-06-12T11:44:38.006Z,18.05
2018-06-12T11:45:37.972Z,17.99
2018-06-12T11:46:37.973Z,17.7
2018-06-12T11:47:38.072Z,17.6
2018-06-12T11:48:38.009Z,18.03
2018-06-12T11:49:38.007Z,18.17
2018-06-12T11:50:38.036Z,18.09
2018-06-12T11:51:38.049Z,17.97
2018-06-12T11:52:38.136Z,17.82
2018-06-12T11:53:50.377Z,17.8
2018-06-12T11:54:37.957Z,17.52
2018-06-12T11:55:38.003Z,17.71
2018-06-12T11:56:38.005Z,17.82
2018-06-12T11:57:38.006Z,17.71
2018-06-12T11:58:37.942Z,17.76
2018-06-12T11:59:38.050Z,17.95
2018-06-12T12:00:37.968Z,17.9
2018-06-12T12:01:37.957Z,18.16
2018-06-12T12:02:37.944Z,18.06
2018-06-12T12:03:38.020Z,18.07
2018-06-12T12:04:37.982Z,18.14
2018-06-12T12:05:37.961Z,18.15
2018-06-12T12:06:38.015Z,18.19
2018-06-12T12:07:38.038Z,17.74
2018-06-12T12:08:37.979Z,17.85
2018-06-12T12:09:37.985Z,17.93
2018-06-12T12:10:38.001Z,18.05
2018-06-12T12:11:38.003Z,17.98
2018-06-12T12:12:37.968Z,18.07
2018-06-12T12:13:38.026Z,17.96
2018-06-12T12:14:38.052Z,18.04
2018-06-12T12:15:38.007Z,18
2018-06-12T12:16:38.056Z,18.08
2018-06-12T12:17:38.033Z,18.2
2018-06-12T12:18:37.997Z,18.17
2018-06-12T12:19:38.033Z,17.91
2018-06-12T12:20:37.977Z,18.04
2018-06-12T12:21:38.078Z,18.13
2018-06-12T12:22:38.061Z,18.14
2018-06-12T12:23:38.002Z,18.17
2018-06-12T12:24:38.035Z,18.17
2018-06-12T12:25:38.204Z,18.26
2018-06-12T12:26:38.093Z,18.27
2018-06-12T12:27:38.030Z,18.3
2018-06-12T12:28:38.304Z,18.17
2018-06-12T12:29:38.092Z,18.3
2018-06-12T12:30:38.161Z,18.01
2018-06-12T12:31:38.113Z,17.93
2018-06-12T12:32:38.041Z,17.88
2018-06-12T12:33:37.989Z,17.94
2018-06-12T12:34:38.156Z,17.94
2018-06-12T12:35:38.033Z,18.08
2018-06-12T12:36:38.090Z,17.83
2018-06-12T12:37:38.056Z,18.1
2018-06-12T12:38:38.053Z,18.41
2018-06-12T12:39:38.014Z,18.22
2018-06-12T12:40:38.023Z,18.31
2018-06-12T12:41:38.063Z,18.45
2018-06-12T12:42:37.968Z,18.29
2018-06-12T12:43:38.263Z,18.81
2018-06-12T12:44:37.998Z,18.85
2018-06-12T12:45:38.021Z,18.55
2018-06-12T12:46:38.423Z,18.64
2018-06-12T12:47:38.077Z,18.64
2018-06-12T12:48:38.058Z,18.33
2018-06-12T12:49:38.032Z,17.99
2018-06-12T12:50:38.004Z,18.8
2018-06-12T12:51:38.044Z,18.24
2018-06-12T12:52:38.019Z,18.23
2018-06-12T12:53:38.031Z,18.32
2018-06-12T12:54:38.006Z,18.46
2018-06-12T12:55:38.111Z,18.49
2018-06-12T12:56:38.009Z,18.27